sensor_id;sensor_type;location;lat;lon;timestamp;pressure;altitude;pressure_sealevel;temperature;humidity
15750;BME280;7976;52.526;13.326;2023-01-28T00:01:17;102289.47;;;1.72;80.16
15750;BME280;7976;52.526;13.326;2023-01-28T00:03:48;102294.53;;;1.69;80.27
15750;BME280;7976;52.526;13.326;2023-01-28T00:06:16;102290.97;;;1.64;80.39
15750;BME280;7976;52.526;13.326;2023-01-28T00:08:44;102279.81;;;1.64;80.47
15750;BME280;7976;52.526;13.326;2023-01-28T00:11:12;102285.91;;;1.67;80.57
15750;BME280;7976;52.526;13.326;2023-01-28T00:13:40;102290.22;;;1.68;80.82
15750;BME280;7976;52.526;13.326;2023-01-28T00:16:08;102288.56;;;1.70;80.90
15750;BME280;7976;52.526;13.326;2023-01-28T00:18:35;102293.69;;;1.69;81.23
15750;BME280;7976;52.526;13.326;2023-01-28T00:21:09;102289.31;;;1.66;81.14
15750;BME280;7976;52.526;13.326;2023-01-28T00:23:38;102294.44;;;1.65;80.99
15750;BME280;7976;52.526;13.326;2023-01-28T00:26:08;102296.94;;;1.62;81.40
15750;BME280;7976;52.526;13.326;2023-01-28T00:28:38;102299.41;;;1.57;81.34
15750;BME280;7976;52.526;13.326;2023-01-28T00:31:06;102295.94;;;1.55;81.35
15750;BME280;7976;52.526;13.326;2023-01-28T00:33:34;102295.94;;;1.55;81.51
15750;BME280;7976;52.526;13.326;2023-01-28T00:36:04;102300.28;;;1.58;81.65
15750;BME280;7976;52.526;13.326;2023-01-28T00:38:32;102303.69;;;1.57;81.31
15750;BME280;7976;52.526;13.326;2023-01-28T00:41:06;102312.91;;;1.47;81.43
15750;BME280;7976;52.526;13.326;2023-01-28T00:43:34;102299.81;;;1.40;81.64
15750;BME280;7976;52.526;13.326;2023-01-28T00:46:02;102310.13;;;1.40;81.79
15750;BME280;7976;52.526;13.326;2023-01-28T00:48:29;102304.94;;;1.38;81.82
15750;BME280;7976;52.526;13.326;2023-01-28T00:50:56;102310.13;;;1.40;81.99
15750;BME280;7976;52.526;13.326;2023-01-28T00:53:24;102305.00;;;1.41;82.06
15750;BME280;7976;52.526;13.326;2023-01-28T00:55:51;102311.00;;;1.40;82.53
15750;BME280;7976;52.526;13.326;2023-01-28T00:58:19;102320.38;;;1.37;82.01
15750;BME280;7976;52.526;13.326;2023-01-28T01:00:46;102312.59;;;1.35;82.52
15750;BME280;7976;52.526;13.326;2023-01-28T01:03:12;102320.41;;;1.38;82.62
15750;BME280;7976;52.526;13.326;2023-01-28T01:05:39;102316.13;;;1.39;82.55
15750;BME280;7976;52.526;13.326;2023-01-28T01:08:07;102313.53;;;1.37;82.34
15750;BME280;7976;52.526;13.326;2023-01-28T01:10:38;102323.88;;;1.39;82.50
15750;BME280;7976;52.526;13.326;2023-01-28T01:13:06;102310.13;;;1.40;82.33
15750;BME280;7976;52.526;13.326;2023-01-28T01:15:34;102318.72;;;1.39;82.49
15750;BME280;7976;52.526;13.326;2023-01-28T01:18:02;102321.31;;;1.40;82.55
15750;BME280;7976;52.526;13.326;2023-01-28T01:20:31;102311.06;;;1.42;82.48
15750;BME280;7976;52.526;13.326;2023-01-28T01:22:58;102311.22;;;1.49;82.83
15750;BME280;7976;52.526;13.326;2023-01-28T01:25:25;102322.47;;;1.51;82.46
15750;BME280;7976;52.526;13.326;2023-01-28T01:27:54;102318.19;;;1.52;82.37
15750;BME280;7976;52.526;13.326;2023-01-28T01:30:20;102320.13;;;1.60;82.49
15750;BME280;7976;52.526;13.326;2023-01-28T01:32:47;102308.97;;;1.61;82.16
15750;BME280;7976;52.526;13.326;2023-01-28T01:35:15;102305.63;;;1.65;82.06
15750;BME280;7976;52.526;13.326;2023-01-28T01:37:43;102314.34;;;1.70;82.40
15750;BME280;7976;52.526;13.326;2023-01-28T01:40:11;102311.91;;;1.76;82.28
15750;BME280;7976;52.526;13.326;2023-01-28T01:42:38;102307.75;;;1.83;81.77
15750;BME280;7976;52.526;13.326;2023-01-28T01:45:12;102323.41;;;1.89;81.75
15750;BME280;7976;52.526;13.326;2023-01-28T01:47:45;102308.88;;;1.92;81.45
15750;BME280;7976;52.526;13.326;2023-01-28T01:50:23;102327.63;;;1.85;81.02
15750;BME280;7976;52.526;13.326;2023-01-28T01:52:56;102324.22;;;1.88;81.09
15750;BME280;7976;52.526;13.326;2023-01-28T01:55:29;102327.69;;;1.88;81.04
15750;BME280;7976;52.526;13.326;2023-01-28T01:58:04;102329.50;;;1.92;81.00
15750;BME280;7976;52.526;13.326;2023-01-28T02:00:33;102331.13;;;1.87;80.78
15750;BME280;7976;52.526;13.326;2023-01-28T02:03:00;102322.44;;;1.84;80.55
15750;BME280;7976;52.526;13.326;2023-01-28T02:05:28;102320.69;;;1.84;80.75
15750;BME280;7976;52.526;13.326;2023-01-28T02:07:57;102325.84;;;1.84;80.64
15750;BME280;7976;52.526;13.326;2023-01-28T02:10:47;102325.94;;;1.87;80.60
15750;BME280;7976;52.526;13.326;2023-01-28T02:13:17;102325.06;;;1.87;80.61
15750;BME280;7976;52.526;13.326;2023-01-28T02:15:47;102319.09;;;1.89;80.72
15750;BME280;7976;52.526;13.326;2023-01-28T02:18:15;102314.81;;;1.90;80.85
15750;BME280;7976;52.526;13.326;2023-01-28T02:23:55;102324.41;;;1.95;80.61
15750;BME280;7976;52.526;13.326;2023-01-28T02:26:54;102316.72;;;1.97;80.53
15750;BME280;7976;52.526;13.326;2023-01-28T02:29:30;102321.94;;;2.00;80.66
15750;BME280;7976;52.526;13.326;2023-01-28T02:32:05;102319.25;;;1.95;80.81
15750;BME280;7976;52.526;13.326;2023-01-28T02:34:42;102317.50;;;1.94;80.81
15750;BME280;7976;52.526;13.326;2023-01-28T02:37:19;102319.25;;;1.95;80.54
15750;BME280;7976;52.526;13.326;2023-01-28T02:39:51;102325.34;;;1.97;80.64
15750;BME280;7976;52.526;13.326;2023-01-28T02:42:23;102319.31;;;1.98;80.42
15750;BME280;7976;52.526;13.326;2023-01-28T02:44:53;102323.56;;;1.96;80.18
15750;BME280;7976;52.526;13.326;2023-01-28T02:47:21;102329.66;;;1.98;80.46
15750;BME280;7976;52.526;13.326;2023-01-28T02:50:10;102324.41;;;1.95;80.31
15750;BME280;7976;52.526;13.326;2023-01-28T02:52:59;102321.75;;;1.91;79.96
15750;BME280;7976;52.526;13.326;2023-01-28T02:56:00;102323.41;;;1.89;79.94
15750;BME280;7976;52.526;13.326;2023-01-28T02:58:36;102323.38;;;1.87;80.18
15750;BME280;7976;52.526;13.326;2023-01-28T03:01:17;102325.09;;;1.88;80.22
15750;BME280;7976;52.526;13.326;2023-01-28T03:03:58;102322.66;;;1.94;80.22
15750;BME280;7976;52.526;13.326;2023-01-28T03:06:32;102330.56;;;2.00;80.50
15750;BME280;7976;52.526;13.326;2023-01-28T03:09:06;102330.63;;;2.03;80.21
15750;BME280;7976;52.526;13.326;2023-01-28T03:11:54;102332.34;;;2.04;80.11
15750;BME280;7976;52.526;13.326;2023-01-28T03:14:40;102329.00;;;2.07;80.24
15750;BME280;7976;52.526;13.326;2023-01-28T03:17:34;102329.06;;;2.10;80.61
15750;BME280;7976;52.526;13.326;2023-01-28T03:20:25;102333.31;;;2.08;80.39
15750;BME280;7976;52.526;13.326;2023-01-28T03:23:19;102328.03;;;2.03;80.32
15750;BME280;7976;52.526;13.326;2023-01-28T03:26:09;102331.47;;;2.02;80.25
15750;BME280;7976;52.526;13.326;2023-01-28T03:29:02;102329.88;;;2.07;80.21
15750;BME280;7976;52.526;13.326;2023-01-28T03:31:50;102322.09;;;2.06;79.80
15750;BME280;7976;52.526;13.326;2023-01-28T03:34:38;102335.81;;;2.05;79.91
15750;BME280;7976;52.526;13.326;2023-01-28T03:37:23;102323.00;;;2.09;80.10
15750;BME280;7976;52.526;13.326;2023-01-28T03:40:06;102336.03;;;2.14;79.83
15750;BME280;7976;52.526;13.326;2023-01-28T03:42:33;102333.34;;;2.09;79.38
15750;BME280;7976;52.526;13.326;2023-01-28T03:45:23;102324.63;;;2.04;79.51
15750;BME280;7976;52.526;13.326;2023-01-28T03:47:50;102322.88;;;2.03;79.48
15750;BME280;7976;52.526;13.326;2023-01-28T03:50:18;102322.81;;;2.00;79.30
15750;BME280;7976;52.526;13.326;2023-01-28T03:52:53;102328.78;;;1.99;78.72
15750;BME280;7976;52.526;13.326;2023-01-28T03:55:42;102321.91;;;1.98;78.74
15750;BME280;7976;52.526;13.326;2023-01-28T03:58:11;102325.31;;;1.96;78.50
15750;BME280;7976;52.526;13.326;2023-01-28T04:00:39;102324.41;;;1.95;78.27
15750;BME280;7976;52.526;13.326;2023-01-28T04:03:08;102320.91;;;1.93;78.35
15750;BME280;7976;52.526;13.326;2023-01-28T04:05:43;102319.31;;;1.98;78.26
15750;BME280;7976;52.526;13.326;2023-01-28T04:08:11;102321.97;;;2.01;77.81
15750;BME280;7976;52.526;13.326;2023-01-28T04:10:53;102331.56;;;2.07;77.02
15750;BME280;7976;52.526;13.326;2023-01-28T04:13:25;102328.16;;;2.09;77.16
15750;BME280;7976;52.526;13.326;2023-01-28T04:15:52;102318.00;;;2.15;76.53
15750;BME280;7976;52.526;13.326;2023-01-28T04:18:19;102321.59;;;2.22;76.08
15750;BME280;7976;52.526;13.326;2023-01-28T04:20:53;102319.16;;;2.29;75.52
15750;BME280;7976;52.526;13.326;2023-01-28T04:23:20;102331.25;;;2.30;74.92
15750;BME280;7976;52.526;13.326;2023-01-28T04:25:50;102321.84;;;2.32;74.64
15750;BME280;7976;52.526;13.326;2023-01-28T04:28:18;102328.81;;;2.38;74.30
15750;BME280;7976;52.526;13.326;2023-01-28T04:30:44;102328.84;;;2.39;73.87
15750;BME280;7976;52.526;13.326;2023-01-28T04:33:22;102327.19;;;2.41;73.49
15750;BME280;7976;52.526;13.326;2023-01-28T04:36:23;102333.25;;;2.43;73.03
15750;BME280;7976;52.526;13.326;2023-01-28T04:39:20;102334.09;;;2.42;71.97
15750;BME280;7976;52.526;13.326;2023-01-28T04:42:08;102334.13;;;2.44;72.18
15750;BME280;7976;52.526;13.326;2023-01-28T04:44:53;102329.03;;;2.47;71.61
15750;BME280;7976;52.526;13.326;2023-01-28T04:47:37;102328.16;;;2.46;71.63
15750;BME280;7976;52.526;13.326;2023-01-28T04:50:22;102319.44;;;2.41;71.19
15750;BME280;7976;52.526;13.326;2023-01-28T04:53:08;102316.88;;;2.43;70.85
15750;BME280;7976;52.526;13.326;2023-01-28T04:55:56;102323.84;;;2.45;70.45
15750;BME280;7976;52.526;13.326;2023-01-28T04:58:27;102320.44;;;2.48;69.71
15750;BME280;7976;52.526;13.326;2023-01-28T05:01:01;102316.09;;;2.45;69.52
15750;BME280;7976;52.526;13.326;2023-01-28T05:03:29;102326.34;;;2.41;69.12
15750;BME280;7976;52.526;13.326;2023-01-28T05:05:56;102318.63;;;2.42;69.82
15750;BME280;7976;52.526;13.326;2023-01-28T05:08:53;102334.13;;;2.44;70.21
15750;BME280;7976;52.526;13.326;2023-01-28T05:11:21;102335.78;;;2.40;70.27
15750;BME280;7976;52.526;13.326;2023-01-28T05:13:53;102337.50;;;2.41;70.53
15750;BME280;7976;52.526;13.326;2023-01-28T05:16:20;102343.63;;;2.45;70.64
15750;BME280;7976;52.526;13.326;2023-01-28T05:18:47;102343.66;;;2.46;70.24
15750;BME280;7976;52.526;13.326;2023-01-28T05:21:17;102347.91;;;2.44;70.31
15750;BME280;7976;52.526;13.326;2023-01-28T05:23:50;102352.06;;;2.38;70.02
15750;BME280;7976;52.526;13.326;2023-01-28T05:26:19;102346.75;;;2.30;69.74
15750;BME280;7976;52.526;13.326;2023-01-28T05:28:46;102354.50;;;2.30;69.80
15750;BME280;7976;52.526;13.326;2023-01-28T05:31:13;102357.16;;;2.35;70.05
15750;BME280;7976;52.526;13.326;2023-01-28T05:33:41;102352.94;;;2.38;69.94
15750;BME280;7976;52.526;13.326;2023-01-28T05:36:11;102353.94;;;2.45;69.80
15750;BME280;7976;52.526;13.326;2023-01-28T05:38:38;102348.09;;;2.52;69.96
15750;BME280;7976;52.526;13.326;2023-01-28T05:41:05;102338.69;;;2.55;69.93
15750;BME280;7976;52.526;13.326;2023-01-28T05:43:34;102344.78;;;2.58;70.00
15750;BME280;7976;52.526;13.326;2023-01-28T05:46:19;102349.03;;;2.55;69.90
15750;BME280;7976;52.526;13.326;2023-01-28T05:49:02;102346.56;;;2.62;70.30
15750;BME280;7976;52.526;13.326;2023-01-28T05:52:07;102342.31;;;2.64;70.51
15750;BME280;7976;52.526;13.326;2023-01-28T05:54:34;102342.31;;;2.64;70.25
15750;BME280;7976;52.526;13.326;2023-01-28T05:57:01;102343.94;;;2.60;70.03
15750;BME280;7976;52.526;13.326;2023-01-28T05:59:30;102345.69;;;2.60;69.87
15750;BME280;7976;52.526;13.326;2023-01-28T06:01:58;102349.09;;;2.60;69.43
15750;BME280;7976;52.526;13.326;2023-01-28T06:04:25;102349.94;;;2.58;69.26
15750;BME280;7976;52.526;13.326;2023-01-28T06:06:52;102344.78;;;2.58;68.90
15750;BME280;7976;52.526;13.326;2023-01-28T06:09:19;102340.50;;;2.60;68.82
15750;BME280;7976;52.526;13.326;2023-01-28T06:11:45;102347.41;;;2.61;69.03
15750;BME280;7976;52.526;13.326;2023-01-28T06:14:14;102349.22;;;2.65;69.29
15750;BME280;7976;52.526;13.326;2023-01-28T06:16:51;102352.66;;;2.65;69.35
15750;BME280;7976;52.526;13.326;2023-01-28T06:19:25;102356.03;;;2.61;69.59
15750;BME280;7976;52.526;13.326;2023-01-28T06:21:51;102350.88;;;2.61;69.34
15750;BME280;7976;52.526;13.326;2023-01-28T06:24:19;102356.06;;;2.63;69.44
15750;BME280;7976;52.526;13.326;2023-01-28T06:26:46;102356.09;;;2.64;69.02
15750;BME280;7976;52.526;13.326;2023-01-28T06:29:13;102362.09;;;2.63;69.37
15750;BME280;7976;52.526;13.326;2023-01-28T06:31:40;102367.31;;;2.65;69.23
15750;BME280;7976;52.526;13.326;2023-01-28T06:34:09;102360.38;;;2.64;69.09
15750;BME280;7976;52.526;13.326;2023-01-28T06:36:37;102362.06;;;2.62;68.79
15750;BME280;7976;52.526;13.326;2023-01-28T06:39:04;102363.63;;;2.55;68.56
15750;BME280;7976;52.526;13.326;2023-01-28T06:41:31;102367.09;;;2.55;68.72
15750;BME280;7976;52.526;13.326;2023-01-28T06:43:58;102367.09;;;2.55;68.42
15750;BME280;7976;52.526;13.326;2023-01-28T06:46:25;102371.44;;;2.58;68.31
15750;BME280;7976;52.526;13.326;2023-01-28T06:48:52;102364.56;;;2.58;68.47
15750;BME280;7976;52.526;13.326;2023-01-28T06:51:20;102362.88;;;2.59;68.44
15750;BME280;7976;52.526;13.326;2023-01-28T06:53:47;102373.31;;;2.64;68.16
15750;BME280;7976;52.526;13.326;2023-01-28T06:56:14;102373.34;;;2.65;68.35
15750;BME280;7976;52.526;13.326;2023-01-28T06:58:40;102358.72;;;2.66;68.30
15750;BME280;7976;52.526;13.326;2023-01-28T07:01:07;102368.19;;;2.67;67.87
15750;BME280;7976;52.526;13.326;2023-01-28T07:03:35;102379.44;;;2.69;67.37
15750;BME280;7976;52.526;13.326;2023-01-28T07:06:03;102373.47;;;2.71;67.11
15750;BME280;7976;52.526;13.326;2023-01-28T07:08:31;102369.16;;;2.72;67.14
15750;BME280;7976;52.526;13.326;2023-01-28T07:10:58;102377.81;;;2.74;67.17
15750;BME280;7976;52.526;13.326;2023-01-28T07:13:25;102373.53;;;2.74;67.15
15750;BME280;7976;52.526;13.326;2023-01-28T07:15:52;102377.81;;;2.74;66.82
15750;BME280;7976;52.526;13.326;2023-01-28T07:18:19;102381.25;;;2.73;66.95
15750;BME280;7976;52.526;13.326;2023-01-28T07:20:45;102386.44;;;2.73;67.17
15750;BME280;7976;52.526;13.326;2023-01-28T07:23:12;102382.88;;;2.68;67.17
15750;BME280;7976;52.526;13.326;2023-01-28T07:25:40;102380.31;;;2.69;67.41
15750;BME280;7976;52.526;13.326;2023-01-28T07:28:07;102370.94;;;2.73;67.46
15750;BME280;7976;52.526;13.326;2023-01-28T07:30:34;102369.25;;;2.75;67.40
15750;BME280;7976;52.526;13.326;2023-01-28T07:33:01;102380.47;;;2.77;67.36
15750;BME280;7976;52.526;13.326;2023-01-28T07:35:28;102376.25;;;2.80;67.45
15750;BME280;7976;52.526;13.326;2023-01-28T07:37:59;102383.16;;;2.81;67.44
15750;BME280;7976;52.526;13.326;2023-01-28T07:40:27;102375.38;;;2.80;67.21
15750;BME280;7976;52.526;13.326;2023-01-28T07:42:55;102377.13;;;2.81;67.36
15750;BME280;7976;52.526;13.326;2023-01-28T07:45:23;102378.06;;;2.84;67.13
15750;BME280;7976;52.526;13.326;2023-01-28T07:47:55;102373.78;;;2.85;67.02
15750;BME280;7976;52.526;13.326;2023-01-28T07:50:22;102381.44;;;2.82;67.01
15750;BME280;7976;52.526;13.326;2023-01-28T07:52:50;102378.03;;;2.83;67.07
15750;BME280;7976;52.526;13.326;2023-01-28T07:55:17;102379.81;;;2.87;67.04
15750;BME280;7976;52.526;13.326;2023-01-28T07:57:50;102379.97;;;2.93;66.88
15750;BME280;7976;52.526;13.326;2023-01-28T08:00:20;102373.16;;;2.96;66.67
15750;BME280;7976;52.526;13.326;2023-01-28T08:02:47;102381.78;;;2.98;66.86
15750;BME280;7976;52.526;13.326;2023-01-28T08:05:17;102385.38;;;3.05;66.68
15750;BME280;7976;52.526;13.326;2023-01-28T08:07:45;102390.66;;;3.11;66.88
15750;BME280;7976;52.526;13.326;2023-01-28T08:10:13;102394.16;;;3.13;66.39
15750;BME280;7976;52.526;13.326;2023-01-28T08:12:50;102396.69;;;3.10;66.02
15750;BME280;7976;52.526;13.326;2023-01-28T08:15:19;102412.97;;;3.06;65.35
15750;BME280;7976;52.526;13.326;2023-01-28T08:17:46;102400.81;;;3.02;64.85
15750;BME280;7976;52.526;13.326;2023-01-28T08:20:13;102394.75;;;3.00;64.78
15750;BME280;7976;52.526;13.326;2023-01-28T08:22:40;102397.44;;;3.04;64.69
15750;BME280;7976;52.526;13.326;2023-01-28T08:25:08;102402.63;;;3.06;64.21
15750;BME280;7976;52.526;13.326;2023-01-28T08:27:34;102391.41;;;3.05;63.74
15750;BME280;7976;52.526;13.326;2023-01-28T08:30:02;102406.19;;;3.11;63.78
15750;BME280;7976;52.526;13.326;2023-01-28T08:32:30;102407.94;;;3.13;63.91
15750;BME280;7976;52.526;13.326;2023-01-28T08:34:57;102420.00;;;3.13;63.91
15750;BME280;7976;52.526;13.326;2023-01-28T08:37:24;102420.75;;;3.07;64.02
15750;BME280;7976;52.526;13.326;2023-01-28T08:39:50;102422.47;;;3.07;63.95
15750;BME280;7976;52.526;13.326;2023-01-28T08:42:17;102430.16;;;3.04;64.20
15750;BME280;7976;52.526;13.326;2023-01-28T08:44:44;102425.00;;;3.04;64.15
15750;BME280;7976;52.526;13.326;2023-01-28T08:47:13;102419.00;;;3.05;64.14
15750;BME280;7976;52.526;13.326;2023-01-28T08:49:41;102424.22;;;3.08;64.17
15750;BME280;7976;52.526;13.326;2023-01-28T08:52:08;102414.78;;;3.10;64.29
15750;BME280;7976;52.526;13.326;2023-01-28T08:54:35;102414.84;;;3.13;63.82
15750;BME280;7976;52.526;13.326;2023-01-28T08:57:02;102420.97;;;3.18;63.80
15750;BME280;7976;52.526;13.326;2023-01-28T08:59:29;102426.94;;;3.15;62.89
15750;BME280;7976;52.526;13.326;2023-01-28T09:01:56;102430.31;;;3.10;62.43
15750;BME280;7976;52.526;13.326;2023-01-28T09:04:23;102421.75;;;3.14;62.52
15750;BME280;7976;52.526;13.326;2023-01-28T09:06:51;102429.69;;;3.21;62.72
15750;BME280;7976;52.526;13.326;2023-01-28T09:09:19;102435.78;;;3.25;62.64
15750;BME280;7976;52.526;13.326;2023-01-28T09:11:46;102437.50;;;3.26;62.48
15750;BME280;7976;52.526;13.326;2023-01-28T09:14:13;102444.38;;;3.24;62.18
15750;BME280;7976;52.526;13.326;2023-01-28T09:16:40;102445.22;;;3.23;62.02
15750;BME280;7976;52.526;13.326;2023-01-28T09:19:06;102444.41;;;3.27;62.40
15750;BME280;7976;52.526;13.326;2023-01-28T09:21:33;102450.56;;;3.32;62.43
15750;BME280;7976;52.526;13.326;2023-01-28T09:24:02;102456.69;;;3.37;62.69
15750;BME280;7976;52.526;13.326;2023-01-28T09:26:28;102449.03;;;3.40;62.78
15750;BME280;7976;52.526;13.326;2023-01-28T09:28:59;102455.97;;;3.44;63.17
15750;BME280;7976;52.526;13.326;2023-01-28T09:31:26;102456.88;;;3.46;63.23
15750;BME280;7976;52.526;13.326;2023-01-28T09:33:53;102458.72;;;3.50;62.92
15750;BME280;7976;52.526;13.326;2023-01-28T09:36:22;102455.97;;;3.44;62.70
15750;BME280;7976;52.526;13.326;2023-01-28T09:38:49;102459.31;;;3.38;62.75
15750;BME280;7976;52.526;13.326;2023-01-28T09:41:27;102461.09;;;3.41;62.88
15750;BME280;7976;52.526;13.326;2023-01-28T09:44:28;102463.72;;;3.42;62.40
15750;BME280;7976;52.526;13.326;2023-01-28T09:47:04;102464.53;;;3.40;61.96
15750;BME280;7976;52.526;13.326;2023-01-28T09:49:38;102468.91;;;3.44;62.01
15750;BME280;7976;52.526;13.326;2023-01-28T09:52:14;102474.16;;;3.48;61.96
15750;BME280;7976;52.526;13.326;2023-01-28T09:54:45;102468.16;;;3.48;62.27
15750;BME280;7976;52.526;13.326;2023-01-28T09:57:22;102466.41;;;3.48;62.47
15750;BME280;7976;52.526;13.326;2023-01-28T09:59:50;102479.47;;;3.54;62.68
15750;BME280;7976;52.526;13.326;2023-01-28T10:02:36;102477.00;;;3.60;62.99
15750;BME280;7976;52.526;13.326;2023-01-28T10:05:19;102474.41;;;3.60;62.98
15750;BME280;7976;52.526;13.326;2023-01-28T10:08:07;102463.13;;;3.57;62.51
15750;BME280;7976;52.526;13.326;2023-01-28T10:10:43;102472.59;;;3.55;62.18
15750;BME280;7976;52.526;13.326;2023-01-28T10:13:25;102464.75;;;3.52;61.83
15750;BME280;7976;52.526;13.326;2023-01-28T10:16:05;102461.34;;;3.53;61.78
15750;BME280;7976;52.526;13.326;2023-01-28T10:18:41;102455.25;;;3.51;61.95
15750;BME280;7976;52.526;13.326;2023-01-28T10:21:17;102451.75;;;3.49;61.84
15750;BME280;7976;52.526;13.326;2023-01-28T10:23:56;102457.94;;;3.57;62.26
15750;BME280;7976;52.526;13.326;2023-01-28T10:26:32;102462.34;;;3.61;62.18
15750;BME280;7976;52.526;13.326;2023-01-28T10:29:10;102454.66;;;3.64;62.31
15750;BME280;7976;52.526;13.326;2023-01-28T10:31:45;102446.19;;;3.72;62.48
15750;BME280;7976;52.526;13.326;2023-01-28T10:34:16;102453.81;;;3.65;62.18
15750;BME280;7976;52.526;13.326;2023-01-28T10:36:43;102454.66;;;3.64;62.22
15750;BME280;7976;52.526;13.326;2023-01-28T10:39:14;102441.75;;;3.67;62.22
15750;BME280;7976;52.526;13.326;2023-01-28T10:41:42;102453.81;;;3.65;62.15
15750;BME280;7976;52.526;13.326;2023-01-28T10:44:15;102449.50;;;3.65;61.87
15750;BME280;7976;52.526;13.326;2023-01-28T10:46:45;102447.81;;;3.67;62.01
15750;BME280;7976;52.526;13.326;2023-01-28T10:49:17;102441.00;;;3.72;62.13
15750;BME280;7976;52.526;13.326;2023-01-28T10:51:48;102441.06;;;3.77;62.20
15750;BME280;7976;52.526;13.326;2023-01-28T10:54:20;102437.66;;;3.78;62.00
15750;BME280;7976;52.526;13.326;2023-01-28T10:56:49;102438.56;;;3.80;62.08
15750;BME280;7976;52.526;13.326;2023-01-28T10:59:25;102439.38;;;3.77;61.84
15750;BME280;7976;52.526;13.326;2023-01-28T11:01:56;102435.81;;;3.72;61.85
15750;BME280;7976;52.526;13.326;2023-01-28T11:04:26;102433.16;;;3.68;61.73
15750;BME280;7976;52.526;13.326;2023-01-28T11:06:58;102446.09;;;3.68;61.93
15750;BME280;7976;52.526;13.326;2023-01-28T11:09:28;102449.50;;;3.65;62.28
15750;BME280;7976;52.526;13.326;2023-01-28T11:11:57;102443.47;;;3.65;63.03
15750;BME280;7976;52.526;13.326;2023-01-28T11:14:26;102436.50;;;3.62;63.20
15750;BME280;7976;52.526;13.326;2023-01-28T11:16:56;102441.72;;;3.64;63.82
15750;BME280;7976;52.526;13.326;2023-01-28T11:19:32;102447.84;;;3.69;64.11
15750;BME280;7976;52.526;13.326;2023-01-28T11:22:01;102439.25;;;3.70;64.11
15750;BME280;7976;52.526;13.326;2023-01-28T11:24:31;102441.84;;;3.70;64.60
15750;BME280;7976;52.526;13.326;2023-01-28T11:27:11;102439.94;;;3.61;64.93
15750;BME280;7976;52.526;13.326;2023-01-28T11:29:42;102439.84;;;3.57;65.40
15750;BME280;7976;52.526;13.326;2023-01-28T11:32:18;102437.25;;;3.57;65.75
15750;BME280;7976;52.526;13.326;2023-01-28T11:34:52;102440.63;;;3.51;66.13
15750;BME280;7976;52.526;13.326;2023-01-28T11:37:21;102435.41;;;3.50;66.34
15750;BME280;7976;52.526;13.326;2023-01-28T11:40:01;102436.25;;;3.49;66.87
15750;BME280;7976;52.526;13.326;2023-01-28T11:42:29;102433.66;;;3.49;67.42
15750;BME280;7976;52.526;13.326;2023-01-28T11:44:58;102432.75;;;3.47;67.71
15750;BME280;7976;52.526;13.326;2023-01-28T11:48:04;102418.88;;;3.43;68.17
15750;BME280;7976;52.526;13.326;2023-01-28T11:50:44;102418.09;;;3.46;68.45
15750;BME280;7976;52.526;13.326;2023-01-28T11:53:45;102429.38;;;3.51;68.50
15750;BME280;7976;52.526;13.326;2023-01-28T11:56:43;102423.44;;;3.55;68.55
15750;BME280;7976;52.526;13.326;2023-01-28T11:59:41;102415.72;;;3.58;68.46
15750;BME280;7976;52.526;13.326;2023-01-28T12:02:31;102421.63;;;3.51;69.10
15750;BME280;7976;52.526;13.326;2023-01-28T12:05:21;102413.94;;;3.55;69.53
15750;BME280;7976;52.526;13.326;2023-01-28T12:08:05;102406.16;;;3.54;69.87
15750;BME280;7976;52.526;13.326;2023-01-28T12:10:44;102416.44;;;3.51;70.01
15750;BME280;7976;52.526;13.326;2023-01-28T12:13:38;102416.44;;;3.49;70.21
15750;BME280;7976;52.526;13.326;2023-01-28T12:16:42;102405.91;;;3.40;70.20
15750;BME280;7976;52.526;13.326;2023-01-28T12:19:33;102399.75;;;3.34;70.56
15750;BME280;7976;52.526;13.326;2023-01-28T12:22:25;102410.94;;;3.33;70.49
15750;BME280;7976;52.526;13.326;2023-01-28T12:25:19;102410.22;;;3.40;70.45
15750;BME280;7976;52.526;13.326;2023-01-28T12:27:59;102410.22;;;3.40;70.10
15750;BME280;7976;52.526;13.326;2023-01-28T12:30:47;102408.50;;;3.42;70.12
15750;BME280;7976;52.526;13.326;2023-01-28T12:33:50;102418.16;;;3.50;70.44
15750;BME280;7976;52.526;13.326;2023-01-28T12:36:39;102414.84;;;3.57;70.33
15750;BME280;7976;52.526;13.326;2023-01-28T12:39:25;102405.38;;;3.58;69.98
15750;BME280;7976;52.526;13.326;2023-01-28T12:42:06;102391.50;;;3.53;69.90
15750;BME280;7976;52.526;13.326;2023-01-28T12:44:42;102402.63;;;3.50;70.40
15750;BME280;7976;52.526;13.326;2023-01-28T12:47:20;102378.56;;;3.54;70.39
15750;BME280;7976;52.526;13.326;2023-01-28T12:49:52;102379.50;;;3.58;70.25
15750;BME280;7976;52.526;13.326;2023-01-28T12:52:33;102382.09;;;3.58;70.09
15750;BME280;7976;52.526;13.326;2023-01-28T12:55:12;102383.84;;;3.60;70.22
15750;BME280;7976;52.526;13.326;2023-01-28T12:57:42;102377.91;;;3.66;69.92
15750;BME280;7976;52.526;13.326;2023-01-28T13:00:22;102387.44;;;3.68;69.55
15750;BME280;7976;52.526;13.326;2023-01-28T13:03:03;102377.97;;;3.69;69.19
15750;BME280;7976;52.526;13.326;2023-01-28T13:05:39;102368.31;;;3.60;69.00
15750;BME280;7976;52.526;13.326;2023-01-28T13:08:15;102364.88;;;3.60;68.99
15750;BME280;7976;52.526;13.326;2023-01-28T13:10:46;102359.75;;;3.63;69.11
15750;BME280;7976;52.526;13.326;2023-01-28T13:13:18;102354.59;;;3.64;68.50
15750;BME280;7976;52.526;13.326;2023-01-28T13:15:47;102348.59;;;3.67;68.68
15750;BME280;7976;52.526;13.326;2023-01-28T13:18:33;102340.84;;;3.68;68.18
15750;BME280;7976;52.526;13.326;2023-01-28T13:21:01;102345.06;;;3.63;67.77
15750;BME280;7976;52.526;13.326;2023-01-28T13:23:41;102345.94;;;3.62;67.58
15750;BME280;7976;52.526;13.326;2023-01-28T13:29:07;102354.69;;;3.70;66.99
15750;BME280;7976;52.526;13.326;2023-01-28T13:31:41;102336.56;;;3.69;66.56
15750;BME280;7976;52.526;13.326;2023-01-28T13:34:34;102334.81;;;3.68;66.23
15750;BME280;7976;52.526;13.326;2023-01-28T13:37:13;102331.34;;;3.67;66.19
15750;BME280;7976;52.526;13.326;2023-01-28T13:39:49;102335.69;;;3.68;65.97